createdAt,value
2022-08-12T00:00:14.608Z,26.17
2022-08-12T00:03:03.191Z,26.11
2022-08-12T00:06:00.484Z,26.05
2022-08-12T00:08:54.970Z,26.00
2022-08-12T00:11:46.162Z,25.93
2022-08-12T00:14:35.080Z,25.88
2022-08-12T00:17:24.633Z,25.80
2022-08-12T00:20:13.248Z,25.73
2022-08-12T00:23:02.593Z,25.66
2022-08-12T00:26:20.582Z,25.62
2022-08-12T00:29:07.879Z,25.59
2022-08-12T00:31:56.275Z,25.55
2022-08-12T00:34:44.844Z,25.51
2022-08-12T00:37:35.339Z,25.48
2022-08-12T00:40:26.436Z,25.45
2022-08-12T00:42:57.833Z,25.43
2022-08-12T00:45:49.412Z,25.42
2022-08-12T00:48:20.361Z,25.38
2022-08-12T00:50:55.242Z,25.35
2022-08-12T00:53:28.946Z,25.31
2022-08-12T00:56:01.899Z,25.28
2022-08-12T00:58:33.379Z,25.27
2022-08-12T01:01:06.633Z,25.27
2022-08-12T01:03:57.483Z,25.25
2022-08-12T01:06:51.152Z,25.22
2022-08-12T01:09:43.472Z,25.22
2022-08-12T01:12:15.277Z,25.23
2022-08-12T01:14:47.012Z,25.21
2022-08-12T01:17:17.826Z,25.16
2022-08-12T01:19:49.465Z,25.13
2022-08-12T01:22:31.178Z,25.12
2022-08-12T01:25:09.336Z,25.10
2022-08-12T01:27:42.100Z,25.06
2022-08-12T01:30:16.688Z,24.99
2022-08-12T01:32:51.139Z,24.86
2022-08-12T01:35:23.014Z,24.71
2022-08-12T01:38:00.963Z,24.61
2022-08-12T01:40:38.198Z,24.54
2022-08-12T01:43:11.563Z,24.49
2022-08-12T01:45:55.742Z,24.40
2022-08-12T01:48:39.739Z,24.34
2022-08-12T01:52:12.649Z,24.34
2022-08-12T01:54:19.387Z,24.40
2022-08-12T01:56:57.084Z,24.44
2022-08-12T01:59:50.129Z,24.45
2022-08-12T02:02:27.230Z,24.45
2022-08-12T02:05:26.698Z,24.45
2022-08-12T02:08:33.516Z,24.45
2022-08-12T02:11:19.442Z,24.45
2022-08-12T02:14:14.015Z,24.41
2022-08-12T02:17:15.130Z,24.34
2022-08-12T02:20:04.081Z,24.27
2022-08-12T02:22:38.888Z,24.25
2022-08-12T02:25:15.709Z,24.22
2022-08-12T02:27:48.667Z,24.18
2022-08-12T02:30:22.319Z,24.13
2022-08-12T02:32:56.584Z,24.08
2022-08-12T02:35:29.967Z,24.03
2022-08-12T02:38:05.119Z,24.01
2022-08-12T02:40:40.935Z,24.00
2022-08-12T02:43:18.515Z,24.03
2022-08-12T02:45:54.358Z,24.04
2022-08-12T02:48:30.875Z,24.00
2022-08-12T02:51:07.466Z,23.91
2022-08-12T02:53:39.655Z,23.87
2022-08-12T02:56:12.593Z,23.87
2022-08-12T02:58:45.251Z,23.84
2022-08-12T03:01:17.052Z,23.83
2022-08-12T03:03:52.869Z,23.88
2022-08-12T03:06:28.457Z,23.85
2022-08-12T03:09:03.934Z,23.82
2022-08-12T03:11:42.957Z,23.86
2022-08-12T03:14:22.896Z,23.96
2022-08-12T03:17:09.682Z,24.08
2022-08-12T03:20:08.670Z,24.27
2022-08-12T03:22:40.768Z,24.45
2022-08-12T03:25:17.337Z,24.61
2022-08-12T03:27:55.997Z,24.77
2022-08-12T03:30:31.447Z,24.92
2022-08-12T03:33:04.296Z,25.06
2022-08-12T03:35:40.642Z,25.18
2022-08-12T03:38:16.364Z,25.30
2022-08-12T03:41:15.584Z,25.40
2022-08-12T03:44:11.996Z,25.49
2022-08-12T03:47:04.749Z,25.58
2022-08-12T03:49:53.881Z,25.53
2022-08-12T03:52:42.655Z,25.41
2022-08-12T03:55:31.100Z,25.30
2022-08-12T03:58:21.624Z,25.22
2022-08-12T04:00:52.814Z,25.17
2022-08-12T04:03:41.084Z,25.15
2022-08-12T04:06:12.861Z,25.10
2022-08-12T04:08:44.323Z,25.16
2022-08-12T04:11:33.125Z,25.40
2022-08-12T04:14:11.735Z,25.57
2022-08-12T04:16:43.149Z,25.49
2022-08-12T04:19:15.045Z,25.40
2022-08-12T04:22:02.339Z,25.35
2022-08-12T04:24:34.955Z,25.48
2022-08-12T04:27:08.713Z,25.61
2022-08-12T04:30:31.434Z,25.77
2022-08-12T04:32:31.887Z,25.92
2022-08-12T04:35:03.871Z,26.02
2022-08-12T04:37:59.508Z,26.11
2022-08-12T04:40:28.837Z,26.20
2022-08-12T04:43:01.350Z,26.27
2022-08-12T04:45:33.147Z,26.33
2022-08-12T04:48:04.156Z,26.39
2022-08-12T04:50:37.135Z,26.45
2022-08-12T04:53:09.493Z,26.52
2022-08-12T04:55:42.356Z,26.57
2022-08-12T04:58:13.773Z,26.64
2022-08-12T05:00:46.037Z,26.70
2022-08-12T05:03:17.172Z,26.74
2022-08-12T05:05:48.185Z,26.79
2022-08-12T05:08:20.084Z,26.83
2022-08-12T05:10:51.594Z,26.87
2022-08-12T05:13:24.593Z,26.91
2022-08-12T05:16:04.550Z,26.96
2022-08-12T05:18:39.146Z,26.99
2022-08-12T05:21:11.546Z,27.03
2022-08-12T05:23:43.236Z,27.08
2022-08-12T05:26:14.064Z,27.11
2022-08-12T05:28:45.389Z,27.16
2022-08-12T05:31:40.488Z,27.19
2022-08-12T05:34:08.436Z,27.21
2022-08-12T05:36:40.325Z,27.23
2022-08-12T05:39:11.117Z,27.25
2022-08-12T05:41:41.994Z,27.26
2022-08-12T05:44:16.419Z,27.27
2022-08-12T05:46:47.079Z,27.30
2022-08-12T05:49:17.817Z,27.32
2022-08-12T05:51:48.554Z,27.33
2022-08-12T05:54:21.969Z,27.35
2022-08-12T05:57:06.628Z,27.36
2022-08-12T05:59:38.625Z,27.39
2022-08-12T06:02:13.360Z,27.43
2022-08-12T06:04:45.408Z,27.47
2022-08-12T06:07:40.075Z,27.49
2022-08-12T06:10:08.405Z,27.52
2022-08-12T06:12:39.181Z,27.56
2022-08-12T06:15:11.876Z,27.59
2022-08-12T06:17:42.801Z,27.62
2022-08-12T06:20:26.591Z,27.64
2022-08-12T06:23:01.886Z,27.64
2022-08-12T06:25:34.520Z,27.68
2022-08-12T06:28:15.966Z,27.70
2022-08-12T06:31:08.165Z,27.73
2022-08-12T06:34:00.128Z,27.74
2022-08-12T06:36:34.622Z,27.76
2022-08-12T06:39:05.531Z,27.78
2022-08-12T06:42:32.509Z,27.80
2022-08-12T06:44:54.600Z,27.81
2022-08-12T06:47:25.537Z,27.84
2022-08-12T06:49:56.304Z,27.85
2022-08-12T06:52:28.290Z,27.85
2022-08-12T06:55:00.023Z,27.87
2022-08-12T06:58:05.464Z,27.88
2022-08-12T07:00:28.450Z,27.89
2022-08-12T07:03:22.931Z,27.90
2022-08-12T07:05:55.258Z,27.92
2022-08-12T07:08:29.780Z,27.94
2022-08-12T07:11:02.473Z,27.94
2022-08-12T07:14:04.734Z,27.96
2022-08-12T07:16:50.538Z,27.99
2022-08-12T07:19:21.996Z,28.01
2022-08-12T07:21:59.499Z,28.02
2022-08-12T07:24:33.517Z,28.01
2022-08-12T07:27:04.422Z,28.02
2022-08-12T07:29:59.492Z,28.03
2022-08-12T07:32:29.416Z,28.03
2022-08-12T07:35:00.680Z,28.04
2022-08-12T07:37:31.521Z,28.05
2022-08-12T07:40:02.564Z,28.06
2022-08-12T07:42:34.098Z,28.07
2022-08-12T07:45:07.452Z,28.07
2022-08-12T07:47:36.611Z,28.08
2022-08-12T07:50:09.416Z,28.06
2022-08-12T07:52:43.294Z,28.07
2022-08-12T07:55:15.855Z,28.08
2022-08-12T07:57:57.780Z,28.08
2022-08-12T08:00:30.608Z,28.08
2022-08-12T08:03:01.747Z,28.10
2022-08-12T08:05:37.467Z,28.11
2022-08-12T08:08:18.415Z,28.12
2022-08-12T08:10:49.637Z,28.13
2022-08-12T08:13:22.086Z,28.13
2022-08-12T08:16:04.257Z,28.14
2022-08-12T08:18:35.829Z,28.15
2022-08-12T08:21:09.094Z,28.17
2022-08-12T08:24:04.699Z,28.18
2022-08-12T08:26:37.163Z,28.20
2022-08-12T08:29:09.023Z,28.24
2022-08-12T08:31:45.486Z,28.25
2022-08-12T08:34:33.765Z,28.25
2022-08-12T08:37:10.787Z,28.25
2022-08-12T08:39:46.264Z,28.26
2022-08-12T08:42:34.695Z,28.29
2022-08-12T08:45:13.024Z,28.31
2022-08-12T08:47:47.834Z,28.32
2022-08-12T08:50:18.978Z,28.35
2022-08-12T08:52:50.342Z,28.36
2022-08-12T08:55:30.037Z,28.36
2022-08-12T08:58:08.828Z,28.37
2022-08-12T09:00:40.495Z,28.38
2022-08-12T09:05:09.005Z,28.39
2022-08-12T09:06:37.306Z,28.40
2022-08-12T09:12:23.721Z,28.41
2022-08-12T09:14:58.509Z,28.38
2022-08-12T09:17:42.752Z,28.41
2022-08-12T09:20:18.072Z,28.41
2022-08-12T09:22:49.862Z,28.42
2022-08-12T09:25:25.938Z,28.42
2022-08-12T09:28:04.073Z,28.43
2022-08-12T09:30:41.149Z,28.46
2022-08-12T09:33:18.636Z,28.47
2022-08-12T09:36:03.285Z,28.49
2022-08-12T09:38:36.952Z,28.50
2022-08-12T09:42:08.850Z,28.51
2022-08-12T09:44:38.561Z,28.53
2022-08-12T09:47:10.800Z,28.53
2022-08-12T09:49:42.772Z,28.53
2022-08-12T09:52:15.888Z,28.54
2022-08-12T09:54:48.491Z,28.54
2022-08-12T09:58:46.589Z,28.55
2022-08-12T10:00:19.477Z,28.55
2022-08-12T10:03:05.843Z,28.56
2022-08-12T10:06:27.638Z,28.56
2022-08-12T10:08:36.251Z,28.57
2022-08-12T10:11:27.042Z,28.57
2022-08-12T10:13:58.023Z,28.59
2022-08-12T10:16:36.952Z,28.61
2022-08-12T10:19:17.362Z,28.61
2022-08-12T10:21:48.773Z,28.61
2022-08-12T10:24:28.142Z,28.62
2022-08-12T10:27:16.803Z,28.64
2022-08-12T10:30:03.669Z,28.64
2022-08-12T10:32:44.285Z,28.63
2022-08-12T10:35:18.146Z,28.62
2022-08-12T10:38:38.881Z,28.64
2022-08-12T10:41:00.056Z,28.66
2022-08-12T10:43:55.255Z,28.67
2022-08-12T10:46:31.120Z,28.67
2022-08-12T10:49:05.956Z,28.68
2022-08-12T10:52:04.331Z,28.69
2022-08-12T10:54:49.479Z,28.71
2022-08-12T10:58:13.190Z,28.71
2022-08-12T11:00:35.885Z,28.73
2022-08-12T11:04:26.118Z,28.75
2022-08-12T11:07:08.178Z,28.75
2022-08-12T11:08:50.813Z,28.76
2022-08-12T11:12:35.831Z,28.77
2022-08-12T11:14:49.764Z,28.77
2022-08-12T11:17:34.514Z,28.77
2022-08-12T11:19:58.312Z,28.78
2022-08-12T11:22:32.715Z,28.78
2022-08-12T11:25:10.419Z,28.79
2022-08-12T11:27:42.652Z,28.78
2022-08-12T11:30:31.649Z,28.79
2022-08-12T11:33:03.113Z,28.78
2022-08-12T11:35:43.685Z,28.79
2022-08-12T11:38:14.453Z,28.80
2022-08-12T11:40:51.164Z,28.80
2022-08-12T11:43:22.003Z,28.79
2022-08-12T11:45:53.290Z,28.79
2022-08-12T11:48:27.878Z,28.80
2022-08-12T11:51:18.612Z,28.78
2022-08-12T11:53:57.457Z,28.80
2022-08-12T11:56:38.202Z,28.80
2022-08-12T12:02:05.602Z,28.83
2022-08-12T12:04:36.784Z,28.84
2022-08-12T12:07:11.502Z,28.85
2022-08-12T12:09:52.269Z,28.84
2022-08-12T12:12:25.402Z,28.84
2022-08-12T12:14:57.926Z,28.84
2022-08-12T12:17:38.121Z,28.84
2022-08-12T12:20:12.712Z,28.85
2022-08-12T12:22:44.640Z,28.86
2022-08-12T12:25:16.080Z,28.86
2022-08-12T12:28:04.905Z,28.88
2022-08-12T12:30:37.644Z,28.90
2022-08-12T12:33:10.070Z,28.89
2022-08-12T12:36:16.724Z,28.90
2022-08-12T12:38:39.695Z,28.89
2022-08-12T12:41:16.637Z,28.91
2022-08-12T12:44:03.991Z,28.91
2022-08-12T12:46:35.649Z,28.92
2022-08-12T12:49:11.018Z,28.93
2022-08-12T12:52:13.876Z,28.93
2022-08-12T12:54:33.727Z,28.94
2022-08-12T12:57:04.727Z,28.94
2022-08-12T12:59:57.121Z,28.94
2022-08-12T13:02:42.248Z,28.93
2022-08-12T13:05:14.137Z,28.94
2022-08-12T13:07:49.497Z,28.95
2022-08-12T13:10:32.108Z,28.95
2022-08-12T13:14:07.663Z,28.95
2022-08-12T13:16:01.638Z,28.97
2022-08-12T13:18:37.605Z,28.98
2022-08-12T13:21:15.493Z,28.98
2022-08-12T13:24:07.572Z,28.97
2022-08-12T13:26:42.596Z,28.97
2022-08-12T13:29:15.346Z,28.97
2022-08-12T13:32:19.170Z,28.98
2022-08-12T13:34:38.130Z,28.99
2022-08-12T13:37:10.072Z,28.99
2022-08-12T13:39:41.217Z,28.98
2022-08-12T13:42:14.835Z,28.99
2022-08-12T13:44:46.165Z,28.99
2022-08-12T13:47:19.458Z,29.00
2022-08-12T13:49:53.583Z,28.99
2022-08-12T13:52:23.886Z,28.99
2022-08-12T13:54:56.595Z,28.96
2022-08-12T13:57:44.665Z,28.99
2022-08-12T14:00:18.898Z,28.96
2022-08-12T14:02:53.299Z,29.01
2022-08-12T14:05:37.518Z,29.01
2022-08-12T14:08:12.071Z,29.02
2022-08-12T14:10:50.896Z,29.03
2022-08-12T14:14:05.928Z,29.04
2022-08-12T14:16:48.284Z,29.04
2022-08-12T14:19:10.701Z,29.05
2022-08-12T14:21:59.778Z,29.04
2022-08-12T14:24:40.561Z,29.06
2022-08-12T14:27:55.407Z,29.08
2022-08-12T14:30:15.379Z,29.08
2022-08-12T14:32:48.255Z,29.08
2022-08-12T14:35:19.718Z,29.10
2022-08-12T14:37:56.407Z,29.09
2022-08-12T14:40:30.847Z,29.10
2022-08-12T14:43:06.255Z,29.11
2022-08-12T14:45:47.056Z,29.11
2022-08-12T14:48:24.442Z,29.12
2022-08-12T14:52:07.917Z,29.13
2022-08-12T14:55:31.951Z,29.14
2022-08-12T14:59:58.338Z,29.13
2022-08-12T15:02:29.811Z,29.13
2022-08-12T15:05:03.558Z,29.14
2022-08-12T15:07:48.767Z,29.14
2022-08-12T15:10:31.099Z,29.13
2022-08-12T15:13:06.854Z,29.13
2022-08-12T15:15:43.686Z,29.14
2022-08-12T15:18:20.882Z,29.14
2022-08-12T15:20:54.665Z,29.14
2022-08-12T15:23:29.179Z,29.13
2022-08-12T15:26:06.421Z,29.14
2022-08-12T15:28:37.332Z,29.14
2022-08-12T15:31:27.941Z,29.11
2022-08-12T15:34:01.395Z,29.11
2022-08-12T15:36:53.718Z,29.13
2022-08-12T15:39:22.972Z,29.13
2022-08-12T15:41:55.406Z,29.14
2022-08-12T15:44:38.089Z,29.15
2022-08-12T15:47:12.540Z,29.16
2022-08-12T15:50:00.539Z,29.15
2022-08-12T15:52:32.428Z,29.17
2022-08-12T15:55:06.125Z,29.17
2022-08-12T15:57:53.834Z,29.20
2022-08-12T16:00:33.393Z,29.31
2022-08-12T16:03:08.487Z,29.41
2022-08-12T16:06:19.157Z,29.39
2022-08-12T16:08:41.475Z,29.37
2022-08-12T16:11:14.764Z,29.37
2022-08-12T16:13:46.755Z,29.38
2022-08-12T16:16:23.378Z,29.42
2022-08-12T16:18:59.836Z,29.46
2022-08-12T16:21:52.422Z,29.51
2022-08-12T16:24:25.530Z,29.53
2022-08-12T16:26:56.762Z,29.56
2022-08-12T16:29:52.249Z,29.56
2022-08-12T16:32:31.081Z,29.58
2022-08-12T16:35:05.875Z,29.59
2022-08-12T16:38:25.446Z,29.62
2022-08-12T16:40:30.258Z,29.62
2022-08-12T16:43:04.721Z,29.64
2022-08-12T16:46:05.195Z,29.64
2022-08-12T16:48:39.556Z,29.66
2022-08-12T16:51:12.757Z,29.64
2022-08-12T16:53:45.714Z,29.65
2022-08-12T16:56:18.158Z,29.73
2022-08-12T16:58:52.260Z,29.78
2022-08-12T17:01:23.322Z,29.78
2022-08-12T17:04:09.210Z,29.80
2022-08-12T17:06:43.530Z,29.81
2022-08-12T17:09:17.693Z,29.80
2022-08-12T17:11:50.289Z,29.82
2022-08-12T17:14:24.945Z,29.81
2022-08-12T17:17:01.971Z,29.79
2022-08-12T17:20:34.982Z,29.79
2022-08-12T17:22:30.448Z,29.78
2022-08-12T17:25:03.679Z,29.80
2022-08-12T17:27:46.534Z,29.81
2022-08-12T17:30:29.112Z,29.83
2022-08-12T17:33:02.848Z,29.84
2022-08-12T17:35:43.347Z,29.84
2022-08-12T17:38:21.474Z,29.84
2022-08-12T17:40:55.506Z,29.88
2022-08-12T17:43:54.763Z,29.93
2022-08-12T17:46:23.995Z,29.92
2022-08-12T17:49:06.502Z,29.92
2022-08-12T17:51:50.160Z,29.92
2022-08-12T17:54:22.974Z,29.91
2022-08-12T17:56:57.860Z,29.89
2022-08-12T17:59:47.835Z,29.90
2022-08-12T18:02:22.572Z,29.92
2022-08-12T18:05:04.932Z,29.90
2022-08-12T18:07:41.300Z,29.89
2022-08-12T18:10:14.405Z,29.91
2022-08-12T18:12:52.269Z,29.92
2022-08-12T18:15:26.827Z,29.93
2022-08-12T18:18:17.369Z,29.92
2022-08-12T18:20:50.876Z,29.96
2022-08-12T18:23:23.570Z,29.98
2022-08-12T18:26:17.722Z,29.99
2022-08-12T18:28:49.873Z,30.02
2022-08-12T18:31:23.837Z,30.01
2022-08-12T18:33:55.080Z,29.95
2022-08-12T18:36:32.877Z,29.86
2022-08-12T18:39:05.184Z,29.77
2022-08-12T18:41:37.558Z,29.68
2022-08-12T18:44:10.416Z,29.59
2022-08-12T18:46:54.421Z,29.51
2022-08-12T18:49:39.834Z,29.41
2022-08-12T18:52:12.223Z,29.33
2022-08-12T18:54:54.064Z,29.26
2022-08-12T18:58:07.507Z,29.20
2022-08-12T19:00:22.380Z,29.19
2022-08-12T19:02:54.511Z,29.16
2022-08-12T19:05:53.573Z,29.10
2022-08-12T19:08:19.103Z,29.07
2022-08-12T19:10:51.331Z,29.13
2022-08-12T19:13:42.850Z,29.22
2022-08-12T19:16:16.166Z,29.30
2022-08-12T19:18:49.397Z,29.35
2022-08-12T19:21:20.289Z,29.38
2022-08-12T19:24:05.908Z,29.39
2022-08-12T19:26:38.821Z,29.46
2022-08-12T19:29:10.872Z,29.49
2022-08-12T19:31:58.192Z,29.50
2022-08-12T19:37:27.446Z,29.53
2022-08-12T19:40:32.293Z,29.55
2022-08-12T19:43:18.746Z,29.55
2022-08-12T19:45:54.557Z,29.57
2022-08-12T19:48:30.643Z,29.57
2022-08-12T19:51:08.953Z,29.60
2022-08-12T19:53:57.906Z,29.61
2022-08-12T19:56:30.435Z,29.62
2022-08-12T19:59:19.327Z,29.62
2022-08-12T20:02:03.226Z,29.60
2022-08-12T20:04:40.664Z,29.60
2022-08-12T20:07:23.469Z,29.60
2022-08-12T20:09:56.823Z,29.61
2022-08-12T20:12:48.753Z,29.61
2022-08-12T20:15:26.393Z,29.60
2022-08-12T20:18:43.772Z,29.60
2022-08-12T20:21:07.720Z,29.61
2022-08-12T20:24:00.491Z,29.61
2022-08-12T20:26:34.502Z,29.60
2022-08-12T20:29:06.129Z,29.59
2022-08-12T20:31:37.723Z,29.59
2022-08-12T20:34:08.922Z,29.59
2022-08-12T20:36:45.129Z,29.60
2022-08-12T20:39:52.162Z,29.60
2022-08-12T20:42:10.605Z,29.59
2022-08-12T20:44:43.294Z,29.61
2022-08-12T20:47:20.191Z,29.62
2022-08-12T20:49:54.772Z,29.57
2022-08-12T20:52:29.842Z,29.53
2022-08-12T20:55:01.468Z,29.52
2022-08-12T20:57:38.033Z,29.51
2022-08-12T21:00:18.188Z,29.51
2022-08-12T21:03:13.845Z,29.51
2022-08-12T21:06:12.773Z,29.47
2022-08-12T21:08:45.177Z,29.45
2022-08-12T21:11:19.597Z,29.44
2022-08-12T21:13:51.386Z,29.42
2022-08-12T21:16:35.503Z,29.42
2022-08-12T21:19:07.935Z,29.39
2022-08-12T21:21:47.140Z,29.38
2022-08-12T21:24:31.791Z,29.36
2022-08-12T21:27:07.450Z,29.30
2022-08-12T21:29:40.069Z,29.30
2022-08-12T21:32:39.761Z,29.26
2022-08-12T21:35:18.995Z,29.22
2022-08-12T21:37:53.080Z,29.20
2022-08-12T21:40:37.199Z,29.22
2022-08-12T21:43:16.464Z,29.23
2022-08-12T21:46:00.509Z,29.25
2022-08-12T21:48:32.702Z,29.27
2022-08-12T21:51:03.596Z,29.28
2022-08-12T21:54:07.968Z,29.30
2022-08-12T21:56:41.125Z,29.32
2022-08-12T21:59:14.592Z,29.33
2022-08-12T22:01:49.354Z,29.33
2022-08-12T22:04:38.528Z,29.32
2022-08-12T22:07:09.594Z,29.30
2022-08-12T22:09:43.116Z,29.29
2022-08-12T22:12:33.259Z,29.28
2022-08-12T22:15:04.308Z,29.27
2022-08-12T22:17:50.243Z,29.28
2022-08-12T22:20:29.632Z,29.24
2022-08-12T22:23:05.334Z,29.24
2022-08-12T22:25:39.714Z,29.25
2022-08-12T22:28:28.886Z,29.26
2022-08-12T22:31:15.216Z,29.19
2022-08-12T22:33:54.318Z,29.14
2022-08-12T22:36:29.250Z,29.09
2022-08-12T22:39:01.147Z,29.06
2022-08-12T22:41:56.857Z,29.03
2022-08-12T22:44:54.484Z,28.95
2022-08-12T22:47:54.219Z,28.94
2022-08-12T22:50:29.617Z,28.98
2022-08-12T22:53:16.448Z,29.01
2022-08-12T22:56:05.500Z,29.00
2022-08-12T22:58:40.536Z,29.02
2022-08-12T23:01:21.182Z,29.01
2022-08-12T23:03:53.861Z,28.99
2022-08-12T23:06:26.939Z,28.99
2022-08-12T23:08:59.519Z,29.01
2022-08-12T23:11:33.757Z,28.98
2022-08-12T23:14:11.785Z,28.98
2022-08-12T23:16:43.149Z,29.01
2022-08-12T23:19:17.877Z,29.02
2022-08-12T23:22:05.677Z,28.98
2022-08-12T23:24:53.816Z,28.88
2022-08-12T23:27:52.014Z,28.82
2022-08-12T23:30:31.936Z,28.82
2022-08-12T23:33:20.605Z,28.85
2022-08-12T23:36:03.069Z,28.87
2022-08-12T23:38:35.605Z,28.88
2022-08-12T23:41:12.543Z,28.85
2022-08-12T23:43:49.865Z,28.80
2022-08-12T23:46:22.509Z,28.72
2022-08-12T23:48:58.466Z,28.65
2022-08-12T23:51:32.267Z,28.60
2022-08-12T23:54:10.085Z,28.56
2022-08-12T23:56:48.855Z,28.51
2022-08-12T23:59:19.582Z,28.52
